Time;durP1;ratioP1;P1;durP2;ratioP2;P2;SDS_P1;SDS_P2;PMS_P1;PMS_P2;Temp;Humidity;BMP_temperature;BMP_pressure;BME280_temperature;BME280_humidity;BME280_pressure;Samples;Min_cycle;Max_cycle;Signal;HPM_P1;HPM_P2
2021/07/24 00:02:18;;;;;;;18.58;8.80;;;;;;;;;;4984364;28;20035;-64
2021/07/24 00:04:44;;;;;;;18.05;8.70;;;;;;;;;;4988551;28;20033;-64
2021/07/24 00:07:10;;;;;;;15.82;8.38;;;;;;;;;;4974965;28;20023;-64
2021/07/24 00:09:36;;;;;;;18.48;8.18;;;;;;;;;;4982261;28;20029;-64
2021/07/24 00:12:02;;;;;;;17.65;8.30;;;;;;;;;;4981483;28;20113;-64
2021/07/24 00:14:28;;;;;;;18.25;9.07;;;;;;;;;;4977451;28;20027;-65
2021/07/24 00:16:54;;;;;;;17.85;9.02;;;;;;;;;;4976337;28;20038;-64
2021/07/24 00:19:20;;;;;;;14.73;8.07;;;;;;;;;;4981881;28;20022;-64
2021/07/24 00:21:46;;;;;;;17.73;8.60;;;;;;;;;;4984767;28;20030;-64
2021/07/24 00:24:12;;;;;;;16.95;9.02;;;;;;;;;;4979909;28;20491;-65
2021/07/24 00:26:38;;;;;;;19.73;8.35;;;;;;;;;;4984966;28;20359;-64
2021/07/24 00:29:05;;;;;;;16.55;8.27;;;;;;;;;;4981968;28;20045;-64
2021/07/24 00:31:32;;;;;;;16.92;8.38;;;;;;;;;;4983356;28;20030;-65
2021/07/24 00:33:58;;;;;;;17.23;8.30;;;;;;;;;;4984621;28;20034;-65
2021/07/24 00:36:24;;;;;;;19.63;8.73;;;;;;;;;;4973910;28;20034;-65
2021/07/24 00:38:50;;;;;;;18.67;9.73;;;;;;;;;;4981943;28;20018;-65
2021/07/24 00:41:27;;;;;;;19.25;9.43;;;;;;;;;;4979009;28;20539;-65
2021/07/24 00:43:54;;;;;;;17.77;8.82;;;;;;;;;;4979810;28;20517;-65
2021/07/24 00:46:21;;;;;;;17.88;8.98;;;;;;;;;;4982498;28;20093;-65
2021/07/24 00:48:48;;;;;;;16.58;8.73;;;;;;;;;;4979904;28;20043;-65
2021/07/24 00:51:16;;;;;;;22.13;9.48;;;;;;;;;;4973522;28;20030;-65
2021/07/24 00:53:42;;;;;;;17.00;8.68;;;;;;;;;;4976850;28;20033;-65
2021/07/24 00:56:08;;;;;;;17.85;8.77;;;;;;;;;;4982700;28;20034;-65
2021/07/24 00:58:38;;;;;;;22.17;9.23;;;;;;;;;;4979620;28;20029;-64
2021/07/24 01:01:05;;;;;;;18.92;9.55;;;;;;;;;;4987189;28;20478;-64
2021/07/24 01:03:31;;;;;;;18.88;9.05;;;;;;;;;;4992094;28;20041;-65
2021/07/24 01:05:58;;;;;;;19.77;9.52;;;;;;;;;;4984464;28;20062;-65
2021/07/24 01:08:24;;;;;;;18.05;9.15;;;;;;;;;;4986877;28;20030;-65
2021/07/24 01:10:53;;;;;;;20.35;9.23;;;;;;;;;;4983524;28;20489;-65
2021/07/24 01:13:19;;;;;;;23.55;9.52;;;;;;;;;;4983182;28;20208;-65
2021/07/24 01:15:50;;;;;;;17.88;9.10;;;;;;;;;;4982112;28;20034;-64
2021/07/24 01:18:16;;;;;;;23.48;9.60;;;;;;;;;;4981258;28;20054;-64
2021/07/24 01:20:43;;;;;;;22.63;10.23;;;;;;;;;;4987203;28;20049;-64
2021/07/24 01:23:09;;;;;;;20.00;9.90;;;;;;;;;;4980234;28;20529;-64
2021/07/24 01:25:41;;;;;;;21.63;9.93;;;;;;;;;;4984128;28;20022;-65
2021/07/24 01:28:07;;;;;;;19.95;10.02;;;;;;;;;;4984439;28;20113;-65
2021/07/24 01:30:33;;;;;;;22.33;9.23;;;;;;;;;;4981014;28;20105;-64
2021/07/24 01:32:59;;;;;;;20.40;9.80;;;;;;;;;;4980519;28;20042;-65
2021/07/24 01:35:25;;;;;;;22.13;11.35;;;;;;;;;;4975070;28;20034;-64
2021/07/24 01:37:51;;;;;;;21.17;9.98;;;;;;;;;;4986107;28;20050;-65
2021/07/24 01:40:17;;;;;;;24.38;10.75;;;;;;;;;;4981186;28;20049;-64
2021/07/24 01:42:43;;;;;;;18.65;9.50;;;;;;;;;;4971527;28;20427;-64
2021/07/24 01:45:10;;;;;;;18.73;10.20;;;;;;;;;;4983138;28;20035;-65
2021/07/24 01:47:36;;;;;;;20.83;10.48;;;;;;;;;;4973113;28;20057;-65
2021/07/24 01:52:49;;;;;;;21.77;10.48;;;;;;;;;;4981736;28;20048;-65
2021/07/24 01:55:21;;;;;;;23.05;10.55;;;;;;;;;;4984023;28;20492;-65
2021/07/24 01:57:48;;;;;;;22.92;11.25;;;;;;;;;;4984563;28;20376;-65
2021/07/24 02:00:15;;;;;;;26.88;11.88;;;;;;;;;;4985854;28;20082;-65
2021/07/24 02:02:42;;;;;;;24.92;11.68;;;;;;;;;;4984599;28;20496;-65
2021/07/24 02:05:14;;;;;;;20.85;10.57;;;;;;;;;;4987989;28;20030;-65
2021/07/24 02:07:41;;;;;;;21.75;11.52;;;;;;;;;;4987141;28;20042;-65
2021/07/24 02:10:08;;;;;;;24.58;11.52;;;;;;;;;;4974845;28;20465;-65
2021/07/24 02:12:35;;;;;;;21.15;11.25;;;;;;;;;;4984425;28;20408;-65
2021/07/24 02:15:01;;;;;;;25.08;12.52;;;;;;;;;;4966699;28;20412;-65
2021/07/24 02:17:29;;;;;;;23.52;11.65;;;;;;;;;;4968670;28;20503;-65
2021/07/24 02:19:57;;;;;;;24.88;12.38;;;;;;;;;;4972179;28;20026;-64
2021/07/24 02:22:23;;;;;;;21.27;11.13;;;;;;;;;;4983369;28;20058;-65
2021/07/24 02:24:49;;;;;;;24.98;11.43;;;;;;;;;;4975540;28;20022;-65
2021/07/24 02:27:15;;;;;;;24.13;11.50;;;;;;;;;;4976005;28;20075;-64
2021/07/24 02:29:41;;;;;;;27.15;11.70;;;;;;;;;;4983072;28;20022;-65
2021/07/24 02:32:07;;;;;;;24.23;11.23;;;;;;;;;;4983704;28;20038;-65
2021/07/24 02:34:33;;;;;;;23.23;11.93;;;;;;;;;;4979170;28;20088;-65
2021/07/24 02:36:59;;;;;;;25.20;11.27;;;;;;;;;;4973629;28;20118;-65
2021/07/24 02:39:25;;;;;;;24.08;11.38;;;;;;;;;;4975390;28;20034;-64
2021/07/24 02:41:51;;;;;;;22.75;10.98;;;;;;;;;;4985316;28;20031;-65
2021/07/24 02:44:17;;;;;;;22.02;10.65;;;;;;;;;;4980137;28;20495;-65
2021/07/24 02:46:43;;;;;;;20.70;10.30;;;;;;;;;;4984798;28;20034;-65
2021/07/24 02:49:09;;;;;;;24.98;11.30;;;;;;;;;;4982515;28;20501;-65
2021/07/24 02:51:35;;;;;;;20.85;10.57;;;;;;;;;;4978452;28;20023;-64
2021/07/24 02:54:01;;;;;;;25.98;11.27;;;;;;;;;;4987447;28;20034;-65
2021/07/24 02:56:27;;;;;;;24.48;11.63;;;;;;;;;;4987442;28;20068;-65
2021/07/24 02:58:53;;;;;;;23.50;11.52;;;;;;;;;;4987176;28;20034;-64
2021/07/24 03:01:19;;;;;;;22.15;11.10;;;;;;;;;;4981584;28;20504;-65
2021/07/24 03:03:45;;;;;;;25.40;11.27;;;;;;;;;;4987546;28;20038;-65
2021/07/24 03:06:11;;;;;;;25.02;11.07;;;;;;;;;;4979010;28;20502;-65
2021/07/24 03:08:37;;;;;;;25.83;11.82;;;;;;;;;;4989175;28;20031;-65
2021/07/24 03:11:03;;;;;;;31.92;12.50;;;;;;;;;;4986380;28;20484;-65
2021/07/24 03:13:30;;;;;;;26.02;12.90;;;;;;;;;;4987851;28;20113;-65
2021/07/24 03:15:56;;;;;;;27.92;13.13;;;;;;;;;;4984339;28;20071;-64
2021/07/24 03:18:22;;;;;;;28.27;12.63;;;;;;;;;;4982933;28;20034;-64
2021/07/24 03:20:49;;;;;;;32.17;13.52;;;;;;;;;;4978687;28;20043;-64
2021/07/24 03:23:15;;;;;;;28.77;12.95;;;;;;;;;;4979032;28;20027;-64
2021/07/24 03:25:42;;;;;;;30.10;13.38;;;;;;;;;;4981378;28;20064;-65
2021/07/24 03:28:08;;;;;;;27.45;13.18;;;;;;;;;;4980841;28;20034;-65
2021/07/24 03:30:34;;;;;;;29.25;14.30;;;;;;;;;;4970710;28;20363;-65
2021/07/24 03:33:00;;;;;;;32.20;13.25;;;;;;;;;;5016518;28;20039;-65
2021/07/24 03:35:26;;;;;;;36.17;13.43;;;;;;;;;;4977737;28;20035;-64
2021/07/24 03:37:52;;;;;;;29.60;13.68;;;;;;;;;;4981630;28;20026;-65
2021/07/24 03:40:20;;;;;;;28.05;13.68;;;;;;;;;;4971959;28;20529;-64
2021/07/24 03:42:46;;;;;;;33.83;14.57;;;;;;;;;;4986451;28;20355;-65
2021/07/24 03:45:12;;;;;;;28.13;13.93;;;;;;;;;;4971319;28;20587;-64
2021/07/24 03:47:38;;;;;;;28.92;13.40;;;;;;;;;;4980143;28;20030;-64
2021/07/24 03:50:04;;;;;;;29.23;14.07;;;;;;;;;;4983554;28;20030;-65
2021/07/24 03:52:30;;;;;;;27.58;13.15;;;;;;;;;;4978054;28;20076;-65
2021/07/24 03:54:58;;;;;;;27.92;13.30;;;;;;;;;;4976180;28;20027;-64
2021/07/24 03:57:24;;;;;;;25.55;13.38;;;;;;;;;;4981580;28;20262;-65
2021/07/24 03:59:50;;;;;;;27.38;13.30;;;;;;;;;;4971759;28;20051;-65
2021/07/24 04:02:22;;;;;;;28.58;13.77;;;;;;;;;;4984303;28;20034;-65
2021/07/24 04:04:52;;;;;;;28.88;13.00;;;;;;;;;;4980751;28;20505;-64
2021/07/24 04:07:18;;;;;;;27.48;13.30;;;;;;;;;;4979606;28;20022;-65
2021/07/24 04:09:44;;;;;;;27.67;14.02;;;;;;;;;;4980987;28;20031;-64
2021/07/24 04:12:10;;;;;;;26.90;13.13;;;;;;;;;;4982517;28;20031;-65
2021/07/24 04:14:36;;;;;;;28.42;13.55;;;;;;;;;;4981773;28;20029;-65
2021/07/24 04:17:02;;;;;;;28.23;13.65;;;;;;;;;;4982285;28;20038;-64
2021/07/24 04:19:30;;;;;;;28.67;13.40;;;;;;;;;;4983996;28;20097;-65
2021/07/24 04:21:56;;;;;;;25.08;13.68;;;;;;;;;;4981973;28;20109;-65
2021/07/24 04:24:22;;;;;;;28.02;13.32;;;;;;;;;;4974558;28;20130;-65
2021/07/24 04:26:49;;;;;;;29.30;13.60;;;;;;;;;;4982299;28;20101;-65
2021/07/24 04:29:15;;;;;;;26.08;13.23;;;;;;;;;;4977705;28;20355;-65
2021/07/24 04:31:41;;;;;;;27.13;12.45;;;;;;;;;;4986329;28;20034;-65
2021/07/24 04:34:08;;;;;;;25.25;12.48;;;;;;;;;;4979285;28;20038;-65
2021/07/24 04:36:34;;;;;;;26.50;12.70;;;;;;;;;;4971201;28;20031;-64
2021/07/24 04:39:00;;;;;;;22.65;11.70;;;;;;;;;;4980949;28;20111;-65
2021/07/24 04:41:26;;;;;;;28.63;12.43;;;;;;;;;;4981721;28;20065;-65
2021/07/24 04:43:53;;;;;;;21.55;11.30;;;;;;;;;;4980372;28;20066;-65
2021/07/24 04:46:19;;;;;;;25.52;12.30;;;;;;;;;;4984918;28;20031;-65
2021/07/24 04:48:45;;;;;;;22.38;11.38;;;;;;;;;;4977366;28;20046;-66
2021/07/24 04:51:15;;;;;;;22.83;10.80;;;;;;;;;;4973371;28;20026;-65
2021/07/24 04:53:41;;;;;;;23.33;11.17;;;;;;;;;;4979466;28;20382;-65
2021/07/24 04:56:07;;;;;;;22.67;11.43;;;;;;;;;;4985602;28;20026;-66
2021/07/24 04:58:34;;;;;;;21.90;11.25;;;;;;;;;;4981452;28;20026;-65
2021/07/24 05:01:00;;;;;;;19.95;10.57;;;;;;;;;;4981767;28;20042;-64
2021/07/24 05:03:26;;;;;;;18.70;10.60;;;;;;;;;;4977583;28;20056;-64
2021/07/24 05:05:54;;;;;;;19.83;10.45;;;;;;;;;;4981315;28;20478;-66
2021/07/24 05:08:23;;;;;;;18.50;10.07;;;;;;;;;;4973316;28;20318;-65
2021/07/24 05:10:49;;;;;;;20.02;10.13;;;;;;;;;;4978265;28;20034;-65
2021/07/24 05:13:15;;;;;;;23.55;10.07;;;;;;;;;;4983800;28;20026;-65
2021/07/24 05:15:41;;;;;;;20.13;9.82;;;;;;;;;;4978247;28;20087;-65
2021/07/24 05:18:08;;;;;;;19.27;9.90;;;;;;;;;;4979204;28;20087;-65
2021/07/24 05:20:35;;;;;;;20.17;10.52;;;;;;;;;;4977334;28;20500;-65
2021/07/24 05:23:01;;;;;;;19.13;10.55;;;;;;;;;;4971813;28;20075;-65
2021/07/24 05:25:27;;;;;;;21.25;10.13;;;;;;;;;;4980408;28;20110;-65
2021/07/24 05:27:55;;;;;;;18.30;9.90;;;;;;;;;;4975590;28;20034;-65
2021/07/24 05:30:21;;;;;;;19.98;10.35;;;;;;;;;;4979292;28;20019;-64
2021/07/24 05:32:47;;;;;;;17.90;9.70;;;;;;;;;;4977484;28;20375;-65
2021/07/24 05:35:13;;;;;;;23.90;10.52;;;;;;;;;;4981485;28;20428;-64
2021/07/24 05:37:39;;;;;;;17.92;9.73;;;;;;;;;;4983394;28;20026;-64
2021/07/24 05:40:05;;;;;;;18.73;9.10;;;;;;;;;;4985186;28;20386;-65
2021/07/24 05:42:31;;;;;;;17.65;10.00;;;;;;;;;;4981308;28;20079;-65
2021/07/24 05:44:57;;;;;;;19.27;9.75;;;;;;;;;;4978920;28;20042;-65
2021/07/24 05:47:23;;;;;;;17.00;9.48;;;;;;;;;;4980840;28;20030;-64
2021/07/24 05:49:50;;;;;;;21.65;9.98;;;;;;;;;;4982270;28;20414;-64
2021/07/24 05:52:16;;;;;;;19.23;9.77;;;;;;;;;;4968669;28;20077;-64
2021/07/24 05:54:42;;;;;;;17.85;9.75;;;;;;;;;;4983841;28;20477;-66
2021/07/24 05:57:08;;;;;;;20.52;9.40;;;;;;;;;;4978480;28;20038;-65
2021/07/24 05:59:35;;;;;;;15.90;8.75;;;;;;;;;;4983281;28;20042;-65
2021/07/24 06:02:01;;;;;;;16.17;9.27;;;;;;;;;;4980459;28;20440;-65
2021/07/24 06:04:27;;;;;;;17.58;8.90;;;;;;;;;;4975331;28;20023;-65
2021/07/24 06:06:53;;;;;;;17.02;8.90;;;;;;;;;;4980169;28;20044;-65
2021/07/24 06:09:19;;;;;;;16.77;8.77;;;;;;;;;;4978377;28;20023;-66
2021/07/24 06:11:45;;;;;;;17.77;9.18;;;;;;;;;;4981788;28;20037;-65
2021/07/24 06:14:11;;;;;;;16.38;9.40;;;;;;;;;;4971753;28;20035;-65
2021/07/24 06:16:38;;;;;;;15.50;8.18;;;;;;;;;;4973925;28;20087;-66
2021/07/24 06:19:04;;;;;;;17.10;8.98;;;;;;;;;;4977637;28;20030;-65
2021/07/24 06:21:30;;;;;;;17.35;8.75;;;;;;;;;;4983692;28;20039;-65
2021/07/24 06:23:57;;;;;;;16.73;8.38;;;;;;;;;;4978754;28;20021;-65
2021/07/24 06:26:23;;;;;;;16.17;8.77;;;;;;;;;;4979159;28;20027;-65
2021/07/24 06:28:49;;;;;;;15.85;8.55;;;;;;;;;;4973413;28;20456;-65
2021/07/24 06:31:15;;;;;;;18.23;8.68;;;;;;;;;;4981729;28;20030;-65
2021/07/24 06:33:41;;;;;;;19.63;9.20;;;;;;;;;;4980469;28;20524;-64
2021/07/24 06:36:07;;;;;;;16.40;8.57;;;;;;;;;;4979726;28;20079;-64
2021/07/24 06:38:33;;;;;;;16.38;8.60;;;;;;;;;;4971744;28;20553;-64
2021/07/24 06:41:00;;;;;;;14.65;8.65;;;;;;;;;;4973242;28;20046;-64
2021/07/24 06:43:26;;;;;;;17.35;8.63;;;;;;;;;;4974781;28;20058;-64
2021/07/24 06:45:52;;;;;;;18.40;8.13;;;;;;;;;;4980341;28;20049;-64
2021/07/24 06:48:18;;;;;;;15.82;7.90;;;;;;;;;;4972823;28;20474;-66
2021/07/24 06:50:44;;;;;;;14.77;8.20;;;;;;;;;;4978827;28;20101;-67
2021/07/24 06:53:10;;;;;;;17.40;8.73;;;;;;;;;;4980052;28;20385;-67
2021/07/24 06:55:36;;;;;;;17.50;8.27;;;;;;;;;;4978807;28;20041;-68
2021/07/24 06:58:02;;;;;;;14.68;8.07;;;;;;;;;;4978809;28;20474;-67
2021/07/24 07:00:29;;;;;;;19.95;7.97;;;;;;;;;;4983647;28;20038;-67
2021/07/24 07:03:02;;;;;;;14.98;7.55;;;;;;;;;;4975866;28;20022;-67
2021/07/24 07:05:28;;;;;;;15.35;7.75;;;;;;;;;;4980842;28;20037;-67
2021/07/24 07:07:54;;;;;;;16.85;7.53;;;;;;;;;;4978995;28;20415;-68
2021/07/24 07:10:23;;;;;;;17.50;8.18;;;;;;;;;;4972140;28;20058;-67
2021/07/24 07:12:49;;;;;;;16.70;8.15;;;;;;;;;;4975632;28;20053;-67
2021/07/24 07:15:15;;;;;;;15.07;7.82;;;;;;;;;;4976755;28;20042;-67
2021/07/24 07:17:41;;;;;;;16.45;8.30;;;;;;;;;;4976086;28;20033;-67
2021/07/24 07:20:07;;;;;;;15.23;7.57;;;;;;;;;;4977038;28;20080;-67
2021/07/24 07:22:33;;;;;;;16.48;7.63;;;;;;;;;;4973558;28;20109;-67
2021/07/24 07:25:00;;;;;;;15.38;7.18;;;;;;;;;;4982087;28;20027;-67
2021/07/24 07:27:26;;;;;;;13.73;7.38;;;;;;;;;;4975948;28;20023;-67
2021/07/24 07:29:52;;;;;;;14.57;6.60;;;;;;;;;;4977089;28;20034;-67
2021/07/24 07:32:18;;;;;;;16.55;7.18;;;;;;;;;;4983265;28;20034;-67
2021/07/24 07:34:44;;;;;;;17.40;8.07;;;;;;;;;;4975376;28;20027;-67
2021/07/24 07:37:10;;;;;;;13.52;7.43;;;;;;;;;;4979157;28;20033;-67
2021/07/24 07:39:36;;;;;;;15.88;7.45;;;;;;;;;;4973302;28;20014;-67
2021/07/24 07:42:03;;;;;;;16.10;7.18;;;;;;;;;;4980164;28;20481;-66
2021/07/24 07:44:29;;;;;;;16.38;7.65;;;;;;;;;;4979914;28;20418;-66
2021/07/24 07:46:56;;;;;;;13.98;7.35;;;;;;;;;;4975426;28;20027;-66
2021/07/24 07:49:22;;;;;;;15.73;7.75;;;;;;;;;;4975280;28;20011;-65
2021/07/24 07:51:48;;;;;;;14.30;6.65;;;;;;;;;;4974998;28;20034;-65
2021/07/24 07:54:14;;;;;;;13.02;6.63;;;;;;;;;;4976862;28;20031;-65
2021/07/24 07:56:40;;;;;;;12.75;6.25;;;;;;;;;;4975846;28;20037;-65
2021/07/24 07:59:06;;;;;;;14.52;7.28;;;;;;;;;;4975953;28;20068;-66
2021/07/24 08:01:32;;;;;;;12.95;6.90;;;;;;;;;;4975465;28;20397;-66
2021/07/24 08:03:58;;;;;;;15.27;7.20;;;;;;;;;;4977341;28;20031;-66
2021/07/24 08:06:24;;;;;;;12.68;6.80;;;;;;;;;;4975098;28;20045;-66
2021/07/24 08:08:50;;;;;;;15.10;6.88;;;;;;;;;;4971950;28;20030;-66
2021/07/24 08:11:16;;;;;;;14.18;6.30;;;;;;;;;;4967472;28;20482;-66
2021/07/24 08:13:42;;;;;;;13.63;6.97;;;;;;;;;;4980687;28;20034;-66
2021/07/24 08:16:15;;;;;;;17.23;6.85;;;;;;;;;;4978580;28;20026;-65
2021/07/24 08:18:42;;;;;;;16.40;7.75;;;;;;;;;;4978644;28;20034;-66
2021/07/24 08:21:08;;;;;;;13.00;7.22;;;;;;;;;;4980263;28;20482;-66
2021/07/24 08:23:34;;;;;;;16.67;7.20;;;;;;;;;;4977075;28;20031;-65
2021/07/24 08:26:00;;;;;;;14.98;6.93;;;;;;;;;;4980100;28;20027;-66
2021/07/24 08:28:26;;;;;;;16.73;7.00;;;;;;;;;;4977578;28;20033;-66
2021/07/24 08:30:52;;;;;;;13.73;7.18;;;;;;;;;;4979023;28;20537;-66
2021/07/24 08:33:18;;;;;;;12.07;6.82;;;;;;;;;;4979325;28;20039;-66
2021/07/24 08:35:45;;;;;;;12.73;6.50;;;;;;;;;;4980567;28;20042;-66
2021/07/24 08:38:10;;;;;;;14.20;6.32;;;;;;;;;;4970399;28;20022;-66
2021/07/24 08:40:39;;;;;;;14.63;6.45;;;;;;;;;;4976600;28;20133;-66
2021/07/24 08:43:06;;;;;;;12.25;6.28;;;;;;;;;;4986392;28;20499;-66
2021/07/24 08:45:33;;;;;;;14.50;6.60;;;;;;;;;;4987126;28;20366;-66
2021/07/24 08:48:04;;;;;;;12.52;6.55;;;;;;;;;;4980784;28;20119;-66
2021/07/24 08:50:32;;;;;;;11.50;6.20;;;;;;;;;;4985628;28;20027;-66
2021/07/24 08:53:01;;;;;;;13.15;6.45;;;;;;;;;;4987183;28;20688;-66
2021/07/24 08:55:27;;;;;;;13.00;5.90;;;;;;;;;;4979077;28;20042;-66
2021/07/24 08:57:55;;;;;;;12.38;6.15;;;;;;;;;;4975284;28;20026;-66
2021/07/24 09:00:23;;;;;;;12.60;6.38;;;;;;;;;;4971197;28;20464;-66
2021/07/24 09:02:51;;;;;;;13.25;6.80;;;;;;;;;;4976486;28;20026;-66
2021/07/24 09:05:17;;;;;;;21.20;6.75;;;;;;;;;;4978833;28;20082;-66
2021/07/24 09:07:47;;;;;;;12.68;6.78;;;;;;;;;;4970870;28;20037;-66
2021/07/24 09:10:13;;;;;;;;;;;;;;;;;;4973723;28;20517;-66
2021/07/24 09:12:40;;;;;;;13.88;6.82;;;;;;;;;;4984930;28;19921;-66
2021/07/24 09:15:07;;;;;;;12.55;7.07;;;;;;;;;;4979664;28;20041;-66
2021/07/24 09:17:33;;;;;;;11.20;6.50;;;;;;;;;;4976141;28;20034;-66
2021/07/24 09:20:02;;;;;;;12.43;6.57;;;;;;;;;;4980181;28;20382;-65
2021/07/24 09:22:29;;;;;;;11.90;6.78;;;;;;;;;;4972726;28;20025;-66
2021/07/24 09:25:06;;;;;;;12.85;6.97;;;;;;;;;;4981876;28;20105;-66
2021/07/24 09:27:32;;;;;;;12.75;6.22;;;;;;;;;;4980495;28;20535;-65
2021/07/24 09:29:58;;;;;;;10.07;6.30;;;;;;;;;;4975725;28;20034;-66
2021/07/24 09:32:24;;;;;;;12.85;6.72;;;;;;;;;;4980340;28;20034;-66
2021/07/24 09:34:50;;;;;;;13.02;7.00;;;;;;;;;;4984863;28;20083;-65
2021/07/24 09:37:29;;;;;;;13.48;6.30;;;;;;;;;;4980324;28;20125;-66
2021/07/24 09:39:56;;;;;;;19.35;6.60;;;;;;;;;;4976323;28;20038;-66
2021/07/24 09:42:23;;;;;;;12.27;7.05;;;;;;;;;;4977314;28;20127;-66
2021/07/24 09:45:05;;;;;;;16.58;6.57;;;;;;;;;;4977872;28;20029;-66
2021/07/24 09:47:31;;;;;;;12.02;6.32;;;;;;;;;;4982465;28;20029;-66
2021/07/24 09:50:10;;;;;;;12.27;6.30;;;;;;;;;;4981838;28;20097;-65
2021/07/24 09:52:45;;;;;;;16.42;6.65;;;;;;;;;;4980107;28;20038;-66
2021/07/24 09:55:18;;;;;;;12.40;6.65;;;;;;;;;;4979546;28;20019;-66
2021/07/24 09:57:44;;;;;;;10.95;6.40;;;;;;;;;;4985774;28;20478;-66
2021/07/24 10:00:35;;;;;;;13.65;7.35;;;;;;;;;;4972958;28;20053;-66
2021/07/24 10:03:02;;;;;;;13.75;6.97;;;;;;;;;;4978348;28;20030;-66
2021/07/24 10:05:41;;;;;;;12.02;6.82;;;;;;;;;;4971670;28;20375;-66
2021/07/24 10:08:11;;;;;;;14.30;7.10;;;;;;;;;;4971805;28;20045;-66
2021/07/24 10:10:39;;;;;;;12.93;6.07;;;;;;;;;;4977653;28;20018;-66
2021/07/24 10:13:11;;;;;;;12.65;6.70;;;;;;;;;;4982042;28;20045;-66
2021/07/24 10:15:38;;;;;;;18.17;7.43;;;;;;;;;;4978207;28;20030;-66
2021/07/24 10:18:05;;;;;;;15.32;7.53;;;;;;;;;;4982095;28;20531;-66
2021/07/24 10:20:34;;;;;;;15.18;7.30;;;;;;;;;;4976269;28;20038;-66
2021/07/24 10:23:01;;;;;;;12.38;6.43;;;;;;;;;;4976582;28;20389;-66
2021/07/24 10:25:28;;;;;;;14.35;7.82;;;;;;;;;;4976330;28;20106;-66
2021/07/24 10:27:55;;;;;;;13.20;7.07;;;;;;;;;;4983683;28;20038;-66
2021/07/24 10:30:28;;;;;;;12.93;7.13;;;;;;;;;;4985730;28;20034;-66
2021/07/24 10:32:56;;;;;;;14.63;7.57;;;;;;;;;;4980889;28;20038;-66
2021/07/24 10:35:37;;;;;;;14.82;8.23;;;;;;;;;;4967244;28;20129;-66
2021/07/24 10:38:22;;;;;;;15.07;6.63;;;;;;;;;;4976215;28;20427;-66
2021/07/24 10:40:48;;;;;;;13.20;7.43;;;;;;;;;;4983253;28;20077;-66
2021/07/24 10:43:34;;;;;;;15.30;7.93;;;;;;;;;;4980891;28;20107;-66
2021/07/24 10:46:00;;;;;;;14.38;7.07;;;;;;;;;;4983040;28;20031;-66
2021/07/24 10:48:27;;;;;;;12.50;7.78;;;;;;;;;;4978927;28;20037;-66
2021/07/24 10:50:53;;;;;;;14.55;7.75;;;;;;;;;;4979105;28;20029;-66
2021/07/24 10:53:21;;;;;;;13.77;7.47;;;;;;;;;;4976181;28;20027;-66
2021/07/24 10:55:47;;;;;;;16.98;7.55;;;;;;;;;;4972964;28;20027;-66
2021/07/24 10:58:15;;;;;;;16.17;7.65;;;;;;;;;;4973675;28;20039;-66
2021/07/24 11:01:06;;;;;;;15.52;7.47;;;;;;;;;;4984979;28;20040;-66
2021/07/24 11:03:35;;;;;;;14.73;9.02;;;;;;;;;;4975345;28;20100;-66
2021/07/24 11:06:20;;;;;;;13.07;7.68;;;;;;;;;;4980430;28;20109;-66
2021/07/24 11:08:58;;;;;;;13.15;7.45;;;;;;;;;;4978870;28;20038;-66
2021/07/24 11:11:42;;;;;;;14.45;7.55;;;;;;;;;;4975627;28;20156;-66
2021/07/24 11:14:09;;;;;;;14.48;8.30;;;;;;;;;;4986183;28;20027;-66
2021/07/24 11:16:54;;;;;;;14.35;7.10;;;;;;;;;;4974049;28;20094;-66
2021/07/24 11:19:20;;;;;;;12.98;7.10;;;;;;;;;;4983483;28;20034;-66
2021/07/24 11:22:04;;;;;;;15.95;7.50;;;;;;;;;;4981666;28;20457;-66
2021/07/24 11:24:30;;;;;;;13.45;7.45;;;;;;;;;;4974922;28;20035;-66
2021/07/24 11:26:58;;;;;;;13.80;7.53;;;;;;;;;;4973333;28;20101;-66
2021/07/24 11:29:24;;;;;;;17.13;8.45;;;;;;;;;;4981538;28;20030;-66
2021/07/24 11:31:50;;;;;;;15.18;7.35;;;;;;;;;;4985417;28;20464;-66
2021/07/24 11:34:17;;;;;;;13.10;7.90;;;;;;;;;;4980811;28;20465;-66
2021/07/24 11:36:48;;;;;;;15.38;7.68;;;;;;;;;;4983603;28;20049;-66
2021/07/24 11:39:15;;;;;;;14.30;8.15;;;;;;;;;;4980725;28;20494;-66
2021/07/24 11:41:41;;;;;;;14.88;8.00;;;;;;;;;;4986021;28;20151;-66
2021/07/24 11:44:08;;;;;;;15.38;8.95;;;;;;;;;;4987449;28;20022;-66
2021/07/24 11:46:34;;;;;;;16.23;8.48;;;;;;;;;;4977512;28;20031;-66
2021/07/24 11:49:04;;;;;;;16.48;8.48;;;;;;;;;;4986423;28;20489;-66
2021/07/24 11:51:30;;;;;;;15.00;8.52;;;;;;;;;;4988102;28;20389;-66
2021/07/24 11:53:56;;;;;;;17.42;8.00;;;;;;;;;;4984434;28;20254;-66
2021/07/24 11:56:22;;;;;;;17.05;7.55;;;;;;;;;;4980322;28;20030;-67
2021/07/24 11:58:55;;;;;;;14.85;7.68;;;;;;;;;;4985734;28;20058;-67
2021/07/24 12:01:22;;;;;;;16.23;8.13;;;;;;;;;;4972655;28;20046;-66
2021/07/24 12:04:02;;;;;;;18.20;8.55;;;;;;;;;;4979508;28;20038;-66
2021/07/24 12:06:28;;;;;;;15.68;7.28;;;;;;;;;;4982975;28;20027;-66
2021/07/24 12:08:54;;;;;;;14.10;7.80;;;;;;;;;;4981869;28;20494;-66
2021/07/24 12:11:20;;;;;;;15.70;7.90;;;;;;;;;;4987957;28;20053;-66
2021/07/24 12:13:46;;;;;;;13.73;7.25;;;;;;;;;;4979671;28;20054;-66
2021/07/24 12:16:13;;;;;;;13.20;7.57;;;;;;;;;;4978957;28;20488;-66
2021/07/24 12:18:47;;;;;;;15.65;8.20;;;;;;;;;;4985954;28;20018;-66
2021/07/24 12:21:15;;;;;;;14.23;8.60;;;;;;;;;;4984844;28;20029;-66
2021/07/24 12:23:45;;;;;;;17.05;8.68;;;;;;;;;;4985658;28;20026;-66
2021/07/24 12:26:12;;;;;;;15.07;6.78;;;;;;;;;;4973288;28;20026;-66
2021/07/24 12:28:39;;;;;;;14.77;6.93;;;;;;;;;;4976449;28;20034;-66
2021/07/24 12:31:18;;;;;;;14.48;8.63;;;;;;;;;;4978301;28;20453;-66
2021/07/24 12:33:47;;;;;;;15.30;7.70;;;;;;;;;;4983221;28;20043;-66
2021/07/24 12:36:13;;;;;;;;;;;;;;;;;;4979454;28;20027;-66
2021/07/24 12:38:39;;;;;;;17.10;8.23;;;;;;;;;;4987067;28;20380;-66
2021/07/24 12:41:06;;;;;;;14.38;6.65;;;;;;;;;;4983826;28;20038;-66
2021/07/24 12:43:32;;;;;;;14.63;7.45;;;;;;;;;;4976612;28;20023;-66
2021/07/24 12:46:14;;;;;;;14.63;7.72;;;;;;;;;;4988724;28;20037;-66
2021/07/24 12:48:42;;;;;;;14.45;8.63;;;;;;;;;;4973370;28;20031;-66
2021/07/24 12:51:09;;;;;;;15.85;9.40;;;;;;;;;;4981706;28;20084;-67
2021/07/24 12:53:35;;;;;;;17.35;9.63;;;;;;;;;;4968300;28;20031;-67
2021/07/24 12:56:01;;;;;;;14.90;8.65;;;;;;;;;;4976529;28;20027;-66
2021/07/24 12:58:28;;;;;;;14.23;8.02;;;;;;;;;;4976556;28;20151;-66
2021/07/24 13:00:54;;;;;;;15.50;9.27;;;;;;;;;;4974201;28;20054;-66
2021/07/24 13:03:20;;;;;;;13.90;8.32;;;;;;;;;;4972962;28;20083;-67
2021/07/24 13:05:46;;;;;;;18.50;9.60;;;;;;;;;;4977580;28;20546;-66
2021/07/24 13:08:12;;;;;;;15.35;8.80;;;;;;;;;;4979133;28;20029;-67
2021/07/24 13:10:38;;;;;;;16.55;7.53;;;;;;;;;;4974205;28;20402;-66
2021/07/24 13:13:04;;;;;;;17.70;9.88;;;;;;;;;;4977481;28;20034;-67
2021/07/24 13:15:30;;;;;;;17.60;9.63;;;;;;;;;;4976841;28;20037;-66
2021/07/24 13:17:56;;;;;;;16.13;9.18;;;;;;;;;;4980110;28;20041;-66
2021/07/24 13:20:22;;;;;;;15.23;8.93;;;;;;;;;;4975930;28;20042;-66
2021/07/24 13:22:48;;;;;;;17.20;9.77;;;;;;;;;;4979125;28;20108;-67
2021/07/24 13:25:41;;;;;;;17.58;9.52;;;;;;;;;;4983766;28;20034;-66
2021/07/24 13:28:15;;;;;;;16.98;9.63;;;;;;;;;;4975976;28;20031;-67
2021/07/24 13:30:51;;;;;;;18.23;10.85;;;;;;;;;;4981603;28;20035;-67
2021/07/24 13:33:18;;;;;;;20.25;10.32;;;;;;;;;;4984432;28;20098;-67
2021/07/24 13:35:45;;;;;;;20.88;10.52;;;;;;;;;;4979363;28;20340;-67
2021/07/24 13:38:11;;;;;;;20.65;12.05;;;;;;;;;;4986270;28;20035;-67
2021/07/24 13:40:37;;;;;;;23.17;12.35;;;;;;;;;;4971952;28;20043;-66
2021/07/24 13:43:03;;;;;;;22.17;12.75;;;;;;;;;;4995612;28;20813;-67
2021/07/24 13:45:29;;;;;;;24.40;12.40;;;;;;;;;;4981290;28;20026;-67
2021/07/24 13:47:58;;;;;;;21.05;12.50;;;;;;;;;;4977255;28;20023;-66
2021/07/24 13:50:24;;;;;;;25.50;12.87;;;;;;;;;;4975664;28;20439;-66
2021/07/24 13:52:51;;;;;;;27.23;14.48;;;;;;;;;;4978383;28;20039;-66
2021/07/24 13:55:17;;;;;;;24.20;14.23;;;;;;;;;;4982202;28;20070;-66
2021/07/24 13:57:43;;;;;;;26.00;14.23;;;;;;;;;;4972499;28;20037;-66
2021/07/24 14:00:10;;;;;;;25.35;14.43;;;;;;;;;;4979488;28;20043;-66
2021/07/24 14:02:36;;;;;;;28.00;15.80;;;;;;;;;;4976936;28;20404;-66
2021/07/24 14:05:02;;;;;;;27.83;16.05;;;;;;;;;;4982979;28;20022;-66
2021/07/24 14:07:28;;;;;;;27.70;14.82;;;;;;;;;;4981029;28;20035;-66
2021/07/24 14:09:58;;;;;;;29.23;15.82;;;;;;;;;;4979891;28;20029;-66
2021/07/24 14:12:25;;;;;;;27.55;15.80;;;;;;;;;;4983569;28;20031;-66
2021/07/24 14:14:51;;;;;;;26.77;15.93;;;;;;;;;;4969780;28;20035;-66
2021/07/24 14:17:18;;;;;;;29.67;17.02;;;;;;;;;;4978686;28;20405;-66
2021/07/24 14:19:44;;;;;;;27.58;15.57;;;;;;;;;;4968422;28;20141;-66
2021/07/24 14:22:10;;;;;;;25.45;15.27;;;;;;;;;;4980916;28;20054;-66
2021/07/24 14:24:36;;;;;;;27.90;15.73;;;;;;;;;;4979747;28;20424;-66
2021/07/24 14:27:02;;;;;;;35.05;17.13;;;;;;;;;;4978522;28;20041;-66
2021/07/24 14:29:28;;;;;;;27.50;16.05;;;;;;;;;;4979221;28;20027;-66
2021/07/24 14:31:54;;;;;;;30.92;16.38;;;;;;;;;;4982946;28;20582;-66